createdAt,value
2023-01-08T00:00:14.999Z,8.29
2023-01-08T00:06:21.286Z,8.21
2023-01-08T00:12:23.281Z,8.24
2023-01-08T00:18:27.063Z,8.03
2023-01-08T00:24:28.950Z,7.90
2023-01-08T00:30:30.945Z,7.83
2023-01-08T00:36:32.859Z,7.48
2023-01-08T00:42:34.875Z,7.34
2023-01-08T00:48:38.770Z,7.33
2023-01-08T00:54:40.828Z,7.46
2023-01-08T01:00:42.775Z,7.66
2023-01-08T01:06:44.842Z,7.50
2023-01-08T01:12:46.926Z,7.55
2023-01-08T01:18:49.533Z,7.45
2023-01-08T01:24:51.471Z,7.33
2023-01-08T01:30:57.635Z,7.33
2023-01-08T01:36:59.656Z,7.50
2023-01-08T01:43:01.545Z,7.63
2023-01-08T01:49:20.783Z,7.78
2023-01-08T01:55:22.767Z,7.92
2023-01-08T02:01:25.365Z,7.97
2023-01-08T02:07:55.999Z,8.02
2023-01-08T02:14:15.259Z,8.06
2023-01-08T02:20:36.950Z,8.09
2023-01-08T02:26:39.149Z,8.26
2023-01-08T02:32:42.997Z,8.33
2023-01-08T02:39:19.526Z,8.43
2023-01-08T02:46:02.872Z,8.50
2023-01-08T02:52:06.738Z,8.62
2023-01-08T02:58:09.307Z,8.63
2023-01-08T03:04:19.578Z,8.71
2023-01-08T03:10:26.137Z,8.95
2023-01-08T03:17:00.901Z,9.08
2023-01-08T03:23:10.304Z,9.12
2023-01-08T03:29:18.454Z,9.18
2023-01-08T03:35:24.456Z,9.13
2023-01-08T03:41:30.944Z,9.10
2023-01-08T03:47:35.965Z,9.09
2023-01-08T03:53:38.166Z,9.04
2023-01-08T03:59:40.044Z,8.99
2023-01-08T04:05:41.963Z,9.07
2023-01-08T04:11:43.833Z,9.29
2023-01-08T04:17:45.753Z,9.16
2023-01-08T04:23:48.246Z,9.24
2023-01-08T04:29:50.143Z,9.15
2023-01-08T04:35:52.322Z,9.17
2023-01-08T04:41:54.194Z,9.13
2023-01-08T04:47:57.699Z,9.04
2023-01-08T04:53:59.581Z,9.01
2023-01-08T05:00:01.449Z,8.97
2023-01-08T05:06:03.429Z,8.89
2023-01-08T05:12:05.533Z,8.91
2023-01-08T05:18:07.402Z,8.89
2023-01-08T05:24:09.777Z,8.88
2023-01-08T05:30:12.595Z,8.91
2023-01-08T05:36:14.784Z,8.89
2023-01-08T05:42:16.659Z,8.97
2023-01-08T05:48:19.064Z,9.07
2023-01-08T05:54:20.951Z,9.14
2023-01-08T06:00:24.515Z,9.16
2023-01-08T06:06:26.413Z,9.36
2023-01-08T06:12:28.288Z,9.08
2023-01-08T06:18:30.513Z,9.09
2023-01-08T06:24:32.569Z,9.04
2023-01-08T06:30:34.631Z,9.03
2023-01-08T06:36:36.511Z,8.98
2023-01-08T06:42:38.386Z,8.96
2023-01-08T06:48:40.427Z,9.02
2023-01-08T06:54:42.308Z,9.07
2023-01-08T07:00:44.192Z,9.08
2023-01-08T07:06:47.079Z,9.01
2023-01-08T07:12:49.337Z,9.06
2023-01-08T07:18:51.214Z,9.01
2023-01-08T07:24:53.393Z,8.97
2023-01-08T07:30:55.567Z,9.05
2023-01-08T07:36:57.470Z,9.05
2023-01-08T07:43:01.780Z,9.15
2023-01-08T07:49:03.799Z,9.09
2023-01-08T07:55:06.025Z,9.06
2023-01-08T08:01:11.205Z,9.04
2023-01-08T08:07:13.269Z,9.20
2023-01-08T08:13:15.248Z,9.19
2023-01-08T08:19:17.125Z,9.36
2023-01-08T08:25:19.261Z,9.28
2023-01-08T08:31:21.236Z,9.45
2023-01-08T08:37:23.140Z,9.29
2023-01-08T08:43:25.037Z,9.42
2023-01-08T08:49:26.930Z,9.74
2023-01-08T08:55:29.537Z,9.57
2023-01-08T09:01:31.739Z,9.66
2023-01-08T09:07:33.856Z,9.82
2023-01-08T09:13:38.120Z,9.74
2023-01-08T09:19:40.011Z,9.81
2023-01-08T09:25:41.903Z,9.89
2023-01-08T09:31:43.818Z,9.90
2023-01-08T09:37:50.712Z,9.85
2023-01-08T09:43:55.595Z,9.95
2023-01-08T09:50:03.127Z,10.43
2023-01-08T09:56:19.838Z,10.04
2023-01-08T10:02:25.496Z,10.07
2023-01-08T10:08:27.464Z,10.15
2023-01-08T10:14:33.834Z,10.10
2023-01-08T10:20:35.760Z,10.48
2023-01-08T10:26:38.565Z,10.38
2023-01-08T10:32:55.153Z,9.96
2023-01-08T10:39:00.824Z,9.95
2023-01-08T10:45:30.333Z,9.98
2023-01-08T10:51:33.361Z,9.98
2023-01-08T10:57:35.465Z,10.02
2023-01-08T11:03:37.659Z,9.89
2023-01-08T11:09:49.055Z,10.21
2023-01-08T11:16:04.114Z,9.99
2023-01-08T11:22:23.997Z,10.25
2023-01-08T11:28:52.248Z,10.33
2023-01-08T11:34:54.033Z,10.26
2023-01-08T11:41:16.755Z,10.18
2023-01-08T11:48:14.653Z,10.18
2023-01-08T11:54:28.208Z,10.35
2023-01-08T12:00:47.885Z,10.40
2023-01-08T12:07:18.793Z,10.60
2023-01-08T12:13:50.851Z,10.69
2023-01-08T12:20:30.601Z,10.85
2023-01-08T12:27:07.072Z,10.78
2023-01-08T12:33:37.433Z,10.70
2023-01-08T12:40:12.398Z,10.93
2023-01-08T12:46:17.014Z,11.35
2023-01-08T12:52:36.023Z,11.22
2023-01-08T12:58:44.343Z,11.10
2023-01-08T13:04:48.199Z,11.80
2023-01-08T13:10:53.900Z,12.50
2023-01-08T13:17:16.004Z,12.44
2023-01-08T13:23:27.689Z,11.99
2023-01-08T13:29:39.015Z,11.79
2023-01-08T13:35:40.917Z,11.56
2023-01-08T13:41:57.105Z,11.28
2023-01-08T13:48:00.253Z,11.00
2023-01-08T13:54:07.754Z,10.93
2023-01-08T14:00:44.851Z,10.92
2023-01-08T14:06:46.777Z,10.70
2023-01-08T14:12:49.823Z,10.68
2023-01-08T14:18:54.218Z,10.53
2023-01-08T14:25:00.999Z,10.55
2023-01-08T14:31:03.081Z,10.57
2023-01-08T14:37:05.052Z,10.82
2023-01-08T14:43:12.306Z,10.51
2023-01-08T14:49:34.583Z,10.49
2023-01-08T14:55:42.870Z,10.50
2023-01-08T15:01:55.315Z,10.66
2023-01-08T15:08:04.309Z,10.31
2023-01-08T15:14:14.756Z,10.14
2023-01-08T15:20:30.633Z,10.17
2023-01-08T15:26:33.237Z,9.99
2023-01-08T15:32:39.763Z,10.07
2023-01-08T15:38:43.117Z,9.89
2023-01-08T15:44:46.115Z,10.01
2023-01-08T15:50:48.039Z,9.88
2023-01-08T15:56:49.977Z,9.82
2023-01-08T16:02:53.885Z,9.71
2023-01-08T16:08:59.870Z,9.63
2023-01-08T16:15:01.852Z,9.76
2023-01-08T16:21:05.127Z,9.48
2023-01-08T16:27:08.586Z,9.45
2023-01-08T16:33:10.470Z,9.47
2023-01-08T16:39:12.409Z,9.50
2023-01-08T16:45:14.353Z,9.59
2023-01-08T16:51:17.133Z,9.42
2023-01-08T16:57:19.085Z,9.40
2023-01-08T17:03:22.263Z,9.59
2023-01-08T17:09:25.425Z,9.37
2023-01-08T17:15:27.328Z,9.38
2023-01-08T17:21:29.265Z,9.29
2023-01-08T17:27:31.162Z,9.29
2023-01-08T17:33:35.035Z,9.26
2023-01-08T17:39:36.948Z,9.55
2023-01-08T17:45:39.516Z,9.33
2023-01-08T17:51:43.119Z,9.19
2023-01-08T17:57:45.532Z,9.22
2023-01-08T18:03:47.540Z,9.23
2023-01-08T18:09:52.675Z,9.27
2023-01-08T18:15:54.562Z,9.45
2023-01-08T18:21:56.651Z,9.32
2023-01-08T18:27:58.545Z,9.30
2023-01-08T18:34:00.491Z,9.30
2023-01-08T18:40:02.724Z,9.31
2023-01-08T18:46:07.683Z,9.14
2023-01-08T18:52:13.377Z,9.17
2023-01-08T18:58:15.253Z,9.51
2023-01-08T19:04:18.506Z,9.02
2023-01-08T19:10:21.779Z,8.54
2023-01-08T19:16:24.277Z,8.15
2023-01-08T19:22:29.591Z,7.63
2023-01-08T19:28:31.470Z,7.35
2023-01-08T19:34:33.363Z,7.17
2023-01-08T19:40:35.335Z,7.16
2023-01-08T19:46:37.506Z,7.08
2023-01-08T19:52:39.810Z,6.99
2023-01-08T19:58:42.112Z,7.02
2023-01-08T20:04:44.045Z,6.85
2023-01-08T20:10:45.952Z,6.60
2023-01-08T20:16:47.895Z,6.39
2023-01-08T20:22:49.777Z,6.34
2023-01-08T20:28:55.049Z,6.23
2023-01-08T20:34:56.955Z,6.27
2023-01-08T20:40:58.831Z,5.99
2023-01-08T20:47:01.808Z,5.90
2023-01-08T20:53:04.546Z,5.81
2023-01-08T20:59:06.522Z,5.71
2023-01-08T21:05:08.880Z,5.78
2023-01-08T21:11:12.388Z,5.77
2023-01-08T21:17:14.265Z,5.68
2023-01-08T21:23:16.137Z,5.69
2023-01-08T21:29:20.782Z,5.69
2023-01-08T21:35:22.667Z,5.68
2023-01-08T21:41:45.956Z,5.74
2023-01-08T21:47:47.847Z,5.88
2023-01-08T21:53:49.736Z,5.77
2023-01-08T21:59:52.013Z,5.72
2023-01-08T22:06:02.906Z,5.67
2023-01-08T22:12:05.138Z,5.64
2023-01-08T22:18:07.033Z,5.57
2023-01-08T22:24:09.022Z,5.39
2023-01-08T22:30:11.511Z,5.33
2023-01-08T22:36:14.821Z,5.37
2023-01-08T22:42:17.302Z,5.33
2023-01-08T22:48:19.257Z,5.40
2023-01-08T22:54:21.295Z,5.45
2023-01-08T23:00:23.219Z,5.65
2023-01-08T23:06:28.216Z,5.87
2023-01-08T23:12:32.266Z,6.12
2023-01-08T23:18:35.915Z,6.37
2023-01-08T23:24:37.843Z,6.55
2023-01-08T23:30:41.326Z,6.64
2023-01-08T23:36:44.378Z,6.88
2023-01-08T23:42:46.276Z,7.07
2023-01-08T23:48:48.213Z,7.27
2023-01-08T23:54:50.106Z,7.27
